Time;durP1;ratioP1;P1;durP2;ratioP2;P2;SDS_P1;SDS_P2;PMS_P1;PMS_P2;Temp;Humidity;BMP_temperature;BMP_pressure;BME280_temperature;BME280_humidity;BME280_pressure;Samples;Min_cycle;Max_cycle;Signal;HPM_P1;HPM_P2
2023/06/16 00:02:36;;;;;;;8.30;7.40;;;;;;;12.02;81.85;96584.41;112439;1241;22615;-87
2023/06/16 00:05:16;;;;;;;9.40;8.00;;;;;;;12.07;82.39;96580.23;112410;1237;62498;-88
2023/06/16 00:07:52;;;;;;;8.20;7.40;;;;;;;12.12;82.60;96580.23;112452;1241;22533;-87
2023/06/16 00:10:33;;;;;;;8.90;7.70;;;;;;;12.13;82.62;96579.38;112264;1241;24237;-87
2023/06/16 00:13:13;;;;;;;9.50;7.80;;;;;;;12.10;82.57;96579.50;112474;1241;22530;-88
2023/06/16 00:15:48;;;;;;;10.30;8.10;;;;;;;12.11;83.16;96580.02;112466;1241;72977;-87
2023/06/16 00:18:24;;;;;;;7.80;7.00;;;;;;;12.17;83.27;96577.96;112457;1241;25242;-87
2023/06/16 00:20:57;;;;;;;9.50;8.30;;;;;;;12.16;83.33;96581.60;112490;1241;22495;-88
2023/06/16 00:23:45;;;;;;;10.70;8.40;;;;;;;12.17;83.74;96579.55;112457;1241;25222;-87
2023/06/16 00:26:26;;;;;;;9.30;8.30;;;;;;;12.26;83.89;96578.85;109248;1241;3912687;-87
2023/06/16 00:29:05;;;;;;;10.10;9.00;;;;;;;12.34;84.00;96577.65;112310;1241;22518;-87
2023/06/16 00:32:16;;;;;;;10.10;8.60;;;;;;;12.41;83.97;96573.98;112476;1233;22511;-88
2023/06/16 00:34:57;;;;;;;10.10;8.40;;;;;;;12.44;83.91;96566.65;110122;1241;2634758;-87
2023/06/16 00:37:45;;;;;;;9.30;8.10;;;;;;;12.46;83.95;96561.61;112471;1241;22503;-87
2023/06/16 00:40:17;;;;;;;8.90;7.50;;;;;;;12.54;83.77;96563.99;112244;1241;22498;-87
2023/06/16 00:43:08;;;;;;;;;;;;;;;;;;;;;
2023/06/16 00:45:44;;;;;;;8.50;7.30;;;;;;;12.67;83.43;96563.41;112449;1237;43658;-87
2023/06/16 00:48:19;;;;;;;8.50;7.40;;;;;;;12.60;83.26;96563.45;112272;1241;22502;-87
2023/06/16 00:50:53;;;;;;;10.50;8.10;;;;;;;12.47;83.26;96562.08;112490;1239;22543;-88
2023/06/16 00:53:43;;;;;;;;;;;;;;;;;;;;;
2023/06/16 00:56:21;;;;;;;7.90;7.10;;;;;;;12.22;83.68;96558.21;112522;1241;126942;-87
2023/06/16 00:59:06;;;;;;;9.70;8.10;;;;;;;12.20;84.24;96559.27;112475;1241;22657;-87
2023/06/16 01:01:38;;;;;;;10.10;8.00;;;;;;;12.23;84.59;96554.15;112466;1241;22495;-87
2023/06/16 01:04:35;;;;;;;9.40;7.20;;;;;;;12.27;84.73;96554.42;112322;1241;22491;-87
2023/06/16 01:07:20;;;;;;;8.90;7.70;;;;;;;12.28;84.85;96557.13;112347;1241;22498;-87
2023/06/16 01:10:00;;;;;;;10.00;7.80;;;;;;;12.24;84.74;96558.36;112234;1241;25527;-87
2023/06/16 01:12:55;;;;;;;10.70;8.30;;;;;;;12.16;84.76;96560.55;112469;1241;22553;-87
2023/06/16 01:15:43;;;;;;;10.00;8.60;;;;;;;12.15;85.18;96559.92;112176;1238;49906;-87
2023/06/16 01:18:30;;;;;;;10.90;9.50;;;;;;;12.19;85.25;96554.54;112484;1238;22489;-87
2023/06/16 01:21:32;;;;;;;12.40;9.60;;;;;;;12.26;85.47;96549.45;112500;1241;22505;-86
2023/06/16 01:24:18;;;;;;;12.90;9.10;;;;;;;12.33;85.40;96551.45;112461;1241;22506;-87
2023/06/16 01:26:51;;;;;;;10.00;8.90;;;;;;;12.39;85.16;96551.53;110818;1238;2118626;-87
2023/06/16 01:29:36;;;;;;;8.90;7.90;;;;;;;12.43;84.96;96549.27;112477;1241;25304;-87
2023/06/16 01:32:17;;;;;;;10.20;8.80;;;;;;;12.45;84.78;96542.42;112261;1241;22488;-87
2023/06/16 01:34:56;;;;;;;9.60;8.60;;;;;;;12.39;84.84;96540.14;112480;1241;22519;-86
2023/06/16 01:37:43;;;;;;;9.50;8.40;;;;;;;12.36;85.08;96537.96;112471;1241;25274;-87
2023/06/16 01:40:18;;;;;;;9.40;8.30;;;;;;;12.39;85.23;96541.80;112457;1241;22499;-87
2023/06/16 01:42:51;;;;;;;9.90;8.50;;;;;;;12.44;85.08;96537.45;112515;1241;22499;-87
2023/06/16 01:45:30;;;;;;;10.70;7.80;;;;;;;12.49;85.00;96536.83;112362;1241;95772;-86
2023/06/16 01:48:25;;;;;;;10.10;8.70;;;;;;;12.54;85.08;96536.98;112506;1237;22502;-87
2023/06/16 01:51:08;;;;;;;11.80;10.00;;;;;;;12.54;85.09;96535.98;112534;1241;22520;-87
2023/06/16 01:53:47;;;;;;;12.00;10.40;;;;;;;12.55;85.11;96531.38;112383;1241;22964;-87
2023/06/16 01:56:32;;;;;;;;;;;;;;;;;;;;;
2023/06/16 01:59:12;;;;;;;10.10;9.00;;;;;;;12.50;85.00;96528.68;112471;1241;22526;-86
2023/06/16 02:01:53;;;;;;;8.80;7.90;;;;;;;12.55;85.10;96528.60;112566;1241;22546;-86
2023/06/16 02:04:42;;;;;;;9.30;8.00;;;;;;;12.58;84.73;96529.73;112531;1237;22533;-87
2023/06/16 02:07:33;;;;;;;8.70;7.30;;;;;;;12.52;84.71;96528.18;112406;1241;84629;-87
2023/06/16 02:10:40;;;;;;;;;;;;;;;;;;;;;
2023/06/16 02:13:18;;;;;;;9.20;7.70;;;;;;;12.38;85.15;96527.66;112506;1241;22568;-86
2023/06/16 02:16:04;;;;;;;9.10;8.00;;;;;;;12.38;85.41;96526.38;112386;1241;95190;-86
2023/06/16 02:18:35;;;;;;;10.20;7.30;;;;;;;12.44;85.46;96524.77;112472;1241;25857;-86
2023/06/16 02:21:48;;;;;;;10.00;7.80;;;;;;;12.47;85.34;96527.67;112495;1238;22540;-87
2023/06/16 02:24:21;;;;;;;8.20;7.30;;;;;;;12.44;84.89;96527.95;112469;1241;22501;-87
2023/06/16 02:26:52;;;;;;;14.10;8.80;;;;;;;12.30;84.72;96526.09;110863;1241;2093602;-87
2023/06/16 02:29:25;;;;;;;11.70;8.00;;;;;;;12.21;85.04;96526.02;112465;1241;22531;-86
2023/06/16 02:32:13;;;;;;;8.60;7.70;;;;;;;12.21;85.32;96526.34;112497;1238;22542;-86
2023/06/16 02:34:53;;;;;;;8.30;7.50;;;;;;;12.27;85.52;96526.95;112462;1241;22523;-86
2023/06/16 02:37:44;;;;;;;11.30;8.20;;;;;;;12.29;85.61;96521.48;108316;1234;5313865;-86
2023/06/16 02:40:19;;;;;;;8.90;7.20;;;;;;;12.26;85.65;96519.36;112532;1238;23945;-87
2023/06/16 02:43:18;;;;;;;8.00;7.20;;;;;;;12.26;85.79;96524.10;112461;1237;22576;-87
2023/06/16 02:45:56;;;;;;;8.90;7.90;;;;;;;12.32;85.90;96529.56;110861;1239;2060574;-87
2023/06/16 02:48:39;;;;;;;10.90;8.80;;;;;;;12.38;85.94;96526.11;112476;1237;22510;-87
2023/06/16 02:51:14;;;;;;;8.60;7.70;;;;;;;12.46;85.88;96524.19;112492;1238;25567;-87
2023/06/16 02:54:09;;;;;;;8.70;7.80;;;;;;;12.48;85.64;96524.72;112502;1241;23302;-87
2023/06/16 02:57:24;;;;;;;9.60;8.60;;;;;;;12.49;85.62;96523.38;111050;1241;1833902;-87
2023/06/16 03:00:23;;;;;;;11.10;9.60;;;;;;;12.49;85.34;96524.02;112466;1237;22510;-87
2023/06/16 03:03:12;;;;;;;10.20;8.70;;;;;;;12.55;85.27;96524.63;112499;1237;25235;-87
2023/06/16 03:05:57;;;;;;;9.20;8.00;;;;;;;12.48;84.79;96523.72;112405;1241;72488;-87
2023/06/16 03:08:37;;;;;;;9.10;8.00;;;;;;;12.26;84.52;96523.81;112490;1241;22529;-87
2023/06/16 03:11:37;;;;;;;;;;;;;;;;;;;;;
2023/06/16 03:14:42;;;;;;;9.90;8.10;;;;;;;12.19;85.38;96529.84;112441;1241;22496;-87
2023/06/16 03:17:43;;;;;;;;;;;;;;;;;;;;;
2023/06/16 03:20:49;;;;;;;8.40;7.40;;;;;;;12.10;85.64;96535.70;112232;1241;22543;-87
2023/06/16 03:23:25;;;;;;;9.40;8.30;;;;;;;12.13;85.86;96533.39;112162;1241;25722;-87
2023/06/16 03:26:31;;;;;;;;;;;;;;;;;;;;;
2023/06/16 03:29:20;;;;;;;;;;;;;;;;;;;;;
2023/06/16 03:32:09;;;;;;;8.70;7.20;;;;;;;12.12;86.00;96535.52;112490;1241;22530;-87
2023/06/16 03:35:02;;;;;;;9.00;6.90;;;;;;;12.10;86.34;96537.56;112505;1241;25392;-87
2023/06/16 03:37:38;;;;;;;8.60;7.30;;;;;;;12.06;86.57;96537.47;112118;1241;83641;-87
2023/06/16 03:40:22;;;;;;;;;;;;;;;;;;;;;
2023/06/16 03:43:08;;;;;;;;;;;;;;;;;;;;;
2023/06/16 03:46:07;;;;;;;9.40;8.00;;;;;;;12.05;87.25;96534.61;112396;1241;92634;-88
2023/06/16 03:49:03;;;;;;;9.30;8.30;;;;;;;12.09;87.61;96536.67;112600;1241;22724;-87
2023/06/16 03:51:46;;;;;;;9.80;8.30;;;;;;;12.16;87.85;96538.33;112466;1241;22513;-88
2023/06/16 03:54:27;;;;;;;10.40;9.30;;;;;;;12.24;87.86;96533.53;112219;1241;26253;-87
2023/06/16 03:57:16;;;;;;;11.00;8.90;;;;;;;12.30;87.99;96538.23;112433;1241;75307;-87
2023/06/16 04:00:03;;;;;;;11.40;9.50;;;;;;;12.43;88.14;96533.17;112185;1241;22546;-87
2023/06/16 04:02:40;;;;;;;11.80;9.60;;;;;;;12.49;88.04;96530.92;112506;1241;22516;-87
2023/06/16 04:05:35;;;;;;;10.90;9.70;;;;;;;12.59;88.14;96535.88;112542;1237;22494;-87
2023/06/16 04:08:47;;;;;;;11.80;10.40;;;;;;;12.72;88.38;96537.67;112525;1241;22541;-87
2023/06/16 04:11:41;;;;;;;11.50;9.50;;;;;;;12.88;88.47;96537.92;112514;1241;22796;-87
2023/06/16 04:14:32;;;;;;;12.20;8.90;;;;;;;13.02;88.52;96537.38;112500;1241;22505;-87
2023/06/16 04:17:36;;;;;;;;;;;;;;;;;;;;;
2023/06/16 04:21:01;;;;;;;11.10;9.20;;;;;;;13.28;88.31;96545.38;112483;1241;22513;-87
2023/06/16 04:24:17;;;;;;;11.00;9.00;;;;;;;13.38;88.50;96540.29;112588;1239;22523;-87
2023/06/16 04:27:03;;;;;;;10.90;9.40;;;;;;;13.47;88.34;96537.54;112124;1241;96082;-88
2023/06/16 04:29:50;;;;;;;11.60;10.10;;;;;;;13.59;88.45;96540.90;112474;1241;22512;-87
2023/06/16 04:32:28;;;;;;;16.30;14.20;;;;;;;13.71;88.25;96539.70;112470;1239;22972;-87
2023/06/16 04:35:05;;;;;;;21.80;18.30;;;;;;;13.80;88.02;96536.20;112500;1241;22553;-88
2023/06/16 04:37:56;;;;;;;22.10;19.40;;;;;;;13.87;88.11;96535.19;107816;1241;5530567;-88
2023/06/16 04:40:39;;;;;;;15.10;12.70;;;;;;;13.96;88.47;96534.83;112250;1241;25277;-88
2023/06/16 04:43:31;;;;;;;;;;;;;;;;;;;;;
2023/06/16 04:46:12;;;;;;;10.80;9.80;;;;;;;14.14;88.48;96530.21;112457;1241;48628;-87
2023/06/16 04:49:05;;;;;;;10.60;9.50;;;;;;;14.24;88.23;96528.81;112514;1241;22536;-87
2023/06/16 04:51:59;;;;;;;11.20;9.50;;;;;;;14.39;88.30;96527.38;112507;1237;22479;-87
2023/06/16 04:54:34;;;;;;;11.80;10.50;;;;;;;14.53;87.92;96524.77;112481;1241;22549;-87
2023/06/16 04:57:29;;;;;;;13.10;11.70;;;;;;;14.66;87.99;96527.90;112431;1241;89644;-87
2023/06/16 05:00:38;;;;;;;;;;;;;;;;;;;;;
2023/06/16 05:03:14;;;;;;;12.50;11.20;;;;;;;14.94;87.74;96528.23;112466;1241;24220;-87
2023/06/16 05:12:32;;;;;;;;;;;;;;;;;;;;;
2023/06/16 05:15:53;;;;;;;;;;;;;;;;;;;;;
2023/06/16 05:18:58;;;;;;;;;;;;;;;;;;;;;
2023/06/16 05:25:15;;;;;;;10.90;9.40;;;;;;;17.19;88.31;96536.08;112225;1241;25276;-87
2023/06/16 05:28:21;;;;;;;10.40;9.00;;;;;;;19.08;88.98;96533.73;111045;1241;1814265;-87
2023/06/16 05:31:08;;;;;;;10.00;8.50;;;;;;;20.96;86.78;96532.20;112480;1241;22582;-87
2023/06/16 05:33:44;;;;;;;9.10;8.10;;;;;;;22.56;82.79;96529.17;112226;1241;22512;-88
2023/06/16 05:36:43;;;;;;;7.90;7.10;;;;;;;23.35;77.50;96529.12;112276;1241;25238;-88
2023/06/16 05:39:17;;;;;;;8.60;7.70;;;;;;;24.05;73.83;96527.92;112467;1241;22517;-87
2023/06/16 05:41:57;;;;;;;9.10;8.10;;;;;;;24.41;71.77;96530.00;112506;1241;22564;-88
2023/06/16 05:44:50;;;;;;;7.80;7.00;;;;;;;25.25;70.37;96521.69;112505;1241;22490;-87
2023/06/16 05:47:25;;;;;;;9.10;8.20;;;;;;;26.13;66.85;96522.45;112400;1241;68857;-87
2023/06/16 05:50:01;;;;;;;8.70;7.80;;;;;;;26.49;64.66;96519.52;112481;1238;22517;-88
2023/06/16 05:52:38;;;;;;;9.20;8.10;;;;;;;27.13;64.24;96516.22;112493;1240;22561;-88
2023/06/16 05:55:11;;;;;;;10.20;7.20;;;;;;;28.07;62.47;96513.09;112510;1241;22505;-88
2023/06/16 05:57:40;;;;;;;8.30;7.40;;;;;;;28.58;59.66;96521.71;112438;1241;87459;-88
2023/06/16 06:00:22;;;;;;;9.10;7.60;;;;;;;28.65;58.07;96519.89;112490;1241;22500;-88
2023/06/16 06:02:53;;;;;;;9.50;8.60;;;;;;;28.59;55.58;96517.80;112500;1241;22550;-88
2023/06/16 06:05:25;;;;;;;7.90;7.10;;;;;;;28.39;55.54;96515.73;112485;1241;22487;-89
2023/06/16 06:07:57;;;;;;;9.30;8.30;;;;;;;28.49;54.16;96517.63;112425;1241;72022;-89
2023/06/16 06:10:45;;;;;;;10.90;8.30;;;;;;;28.23;53.15;96512.42;112505;1239;23420;-89
2023/06/16 06:13:16;;;;;;;11.00;7.90;;;;;;;28.14;52.85;96517.35;112209;1239;22517;-89
2023/06/16 06:15:48;;;;;;;9.50;7.60;;;;;;;28.19;52.52;96519.67;112214;1239;22745;-89
2023/06/16 06:18:17;;;;;;;8.20;6.40;;;;;;;28.01;51.35;96516.92;112146;1243;99980;-89
2023/06/16 06:21:09;;;;;;;8.30;7.40;;;;;;;27.25;50.24;96518.55;112235;1243;22507;-89
2023/06/16 06:23:46;;;;;;;8.30;7.40;;;;;;;26.40;51.73;96523.67;112194;1242;22513;-88
2023/06/16 06:26:23;;;;;;;7.70;6.90;;;;;;;26.25;51.70;96525.77;112155;1243;25379;-89
2023/06/16 06:29:03;;;;;;;8.30;7.40;;;;;;;25.98;51.70;96526.19;112081;1242;131464;-89
2023/06/16 06:31:39;;;;;;;8.70;7.80;;;;;;;25.17;50.60;96528.13;112203;1240;23381;-90
2023/06/16 06:34:35;;;;;;;;;;;;;;;;;;;;;
2023/06/16 06:37:29;;;;;;;10.50;8.90;;;;;;;23.35;52.37;96522.33;110553;1243;2013719;-89
2023/06/16 06:40:39;;;;;;;10.20;9.10;;;;;;;23.09;53.51;96519.89;112258;1242;22514;-89
2023/06/16 06:44:00;;;;;;;11.90;10.50;;;;;;;22.98;54.24;96520.57;112094;1243;25335;-89
2023/06/16 06:53:32;;;;;;;11.40;10.30;;;;;;;22.19;55.85;96529.47;112011;1242;22536;-89
2023/06/16 06:56:36;;;;;;;;;;;;;;;;;;;;;
2023/06/16 06:59:23;;;;;;;11.20;10.10;;;;;;;22.44;56.10;96536.30;107636;1243;5241191;-91
2023/06/16 07:02:24;;;;;;;;;;;;;;;;;;;;;
2023/06/16 07:05:21;;;;;;;;;;;;;;;;;;;;;
2023/06/16 07:08:05;;;;;;;12.10;10.90;;;;;;;21.85;56.79;96542.31;110563;1243;2110822;-92
2023/06/16 07:10:36;;;;;;;12.70;11.40;;;;;;;21.70;56.23;96544.77;112219;1242;22531;-91
2023/06/16 07:13:16;;;;;;;13.50;11.30;;;;;;;21.60;56.40;96545.15;112270;1242;22547;-91
2023/06/16 07:19:26;;;;;;;12.20;11.00;;;;;;;22.19;57.82;96539.95;110461;1242;1794182;-92
2023/06/16 07:22:06;;;;;;;13.70;11.50;;;;;;;22.22;56.58;96541.10;112249;1243;22508;-91
2023/06/16 07:25:17;;;;;;;13.00;11.70;;;;;;;22.30;57.44;96538.27;112234;1242;22544;-90
2023/06/16 07:28:07;;;;;;;13.50;12.20;;;;;;;22.51;57.12;96538.44;112077;1243;130982;-90
2023/06/16 07:30:42;;;;;;;14.10;12.70;;;;;;;22.68;57.04;96536.84;112143;1243;22507;-91
2023/06/16 07:33:24;;;;;;;;;;;;;;;;;;;;;
2023/06/16 07:36:10;;;;;;;12.40;11.20;;;;;;;22.72;56.33;96535.38;112250;1243;22531;-90
2023/06/16 07:38:48;;;;;;;13.70;12.30;;;;;;;22.86;56.06;96529.23;110522;1242;2111171;-92
2023/06/16 07:41:17;;;;;;;12.70;11.30;;;;;;;22.86;55.68;96530.64;112259;1242;22518;-91
2023/06/16 07:44:00;;;;;;;13.60;12.20;;;;;;;22.97;56.48;96529.51;112251;1243;22507;-91
2023/06/16 07:46:38;;;;;;;13.00;11.70;;;;;;;23.34;56.51;96530.50;112281;1241;22526;-90
2023/06/16 07:49:30;;;;;;;12.00;10.80;;;;;;;23.61;56.36;96527.61;107417;1247;5513675;-91
2023/06/16 07:52:07;;;;;;;12.70;11.50;;;;;;;23.77;55.78;96531.86;112206;1243;22509;-92
2023/06/16 07:54:40;;;;;;;12.30;11.00;;;;;;;23.52;54.95;96532.02;112244;1243;22489;-91
2023/06/16 07:57:21;;;;;;;11.60;10.50;;;;;;;23.43;55.15;96534.50;112258;1243;24203;-91
2023/06/16 08:00:03;;;;;;;;;;;;;;;23.50;55.11;96534.77;112215;1243;75672;-91
2023/06/16 08:02:52;;;;;;;;;;;;;;;;;;;;;
2023/06/16 08:05:21;;;;;;;10.50;9.50;;;;;;;23.35;54.86;96532.92;112234;1242;22512;-91
2023/06/16 08:07:52;;;;;;;11.00;9.70;;;;;;;23.25;54.89;96532.15;110457;1243;2286429;-92
2023/06/16 08:18:17;;;;;;;;;;;;;;;;;;;;;
2023/06/16 08:28:50;;;;;;;11.20;9.10;;;;;;;22.26;54.72;96530.55;111574;1243;37638;-91
2023/06/16 08:31:51;;;;;;;10.60;9.00;;;;;;;22.31;55.24;96526.55;112258;1240;23884;-90
2023/06/16 08:41:36;;;;;;;10.80;9.70;;;;;;;22.56;54.91;96520.55;111972;1243;23265;-92
2023/06/16 08:44:16;;;;;;;10.60;9.50;;;;;;;22.55;55.18;96521.77;112265;1243;23823;-91
2023/06/16 08:46:48;;;;;;;11.70;10.10;;;;;;;22.51;55.00;96522.08;112264;1243;22527;-91
2023/06/16 08:49:32;;;;;;;9.80;8.80;;;;;;;22.43;54.64;96524.33;112248;1242;88151;-91
2023/06/16 08:52:13;;;;;;;10.90;9.40;;;;;;;22.22;54.76;96520.37;112246;1243;22514;-92
2023/06/16 08:55:01;;;;;;;11.40;10.20;;;;;;;22.15;55.06;96517.67;112273;1243;22513;-91
2023/06/16 08:57:48;;;;;;;11.20;10.10;;;;;;;22.15;55.09;96512.04;112067;1243;22539;-91
2023/06/16 09:00:32;;;;;;;11.70;10.40;;;;;;;22.15;55.06;96511.73;112215;1241;44382;-91
2023/06/16 09:03:32;;;;;;;10.90;9.70;;;;;;;22.25;55.08;96508.31;112269;1242;22510;-90
2023/06/16 09:06:35;;;;;;;11.30;10.20;;;;;;;22.26;54.73;96504.56;112273;1243;22515;-91
2023/06/16 09:09:28;;;;;;;;;;;;;;;;;;;;;
2023/06/16 09:15:28;;;;;;;12.20;10.90;;;;;;;22.02;55.64;96507.73;112108;1243;22534;-92
2023/06/16 09:18:08;;;;;;;11.40;10.30;;;;;;;22.08;55.21;96508.48;112265;1240;22766;-91
2023/06/16 09:20:51;;;;;;;11.80;10.60;;;;;;;22.12;55.70;96505.59;112290;1243;26410;-92
2023/06/16 09:23:31;;;;;;;11.80;10.60;;;;;;;22.16;55.40;96505.44;112288;1243;22611;-91
2023/06/16 09:26:17;;;;;;;12.50;11.30;;;;;;;22.16;55.54;96502.96;112242;1243;22524;-92
2023/06/16 09:28:53;;;;;;;12.90;11.50;;;;;;;22.19;55.62;96503.02;112033;1243;62648;-91
2023/06/16 09:31:29;;;;;;;11.70;10.30;;;;;;;22.23;55.71;96498.30;112270;1239;22674;-92
2023/06/16 09:34:13;;;;;;;12.00;10.60;;;;;;;22.21;55.17;96498.98;112277;1243;22592;-92
2023/06/16 09:36:43;;;;;;;10.60;9.60;;;;;;;22.20;54.91;96494.63;112267;1242;22516;-91
2023/06/16 09:39:29;;;;;;;11.60;10.20;;;;;;;22.22;54.67;96492.04;110849;1242;1792346;-93
2023/06/16 09:42:16;;;;;;;12.30;11.10;;;;;;;22.23;54.96;96490.60;112053;1243;22506;-92
2023/06/16 09:44:55;;;;;;;11.80;10.70;;;;;;;22.29;55.30;96487.16;112344;1242;24212;-91
2023/06/16 09:47:36;;;;;;;11.60;10.40;;;;;;;22.34;55.23;96483.54;112072;1241;22543;-91
2023/06/16 09:50:14;;;;;;;11.60;10.40;;;;;;;22.34;55.15;96479.39;110866;1243;1797082;-92
2023/06/16 09:52:45;;;;;;;11.10;10.00;;;;;;;22.36;55.20;96480.34;112271;1243;22517;-92
2023/06/16 09:55:19;;;;;;;11.20;10.10;;;;;;;22.35;54.79;96483.65;112068;1242;22533;-92
2023/06/16 09:57:48;;;;;;;11.60;10.50;;;;;;;22.37;54.70;96482.05;112267;1243;22516;-92
2023/06/16 10:00:30;;;;;;;10.50;9.50;;;;;;;22.42;54.73;96478.85;112210;1242;55271;-92
2023/06/16 10:03:11;;;;;;;11.30;10.20;;;;;;;22.50;55.16;96477.98;112271;1243;22604;-91
2023/06/16 10:06:09;;;;;;;11.50;10.30;;;;;;;22.52;54.85;96475.33;112271;1242;25242;-92
2023/06/16 10:09:07;;;;;;;10.50;9.40;;;;;;;22.50;55.17;96472.42;112252;1243;80258;-92
2023/06/16 10:11:55;;;;;;;12.70;10.10;;;;;;;22.45;54.51;96475.90;112294;1243;22594;-94
2023/06/16 10:15:06;;;;;;;11.60;10.50;;;;;;;22.26;54.15;96477.32;112282;1242;22560;-91
2023/06/16 10:20:57;;;;;;;10.80;9.70;;;;;;;22.22;54.20;96471.27;112299;1243;25345;-91
2023/06/16 10:23:29;;;;;;;10.70;9.50;;;;;;;22.20;53.96;96474.17;112091;1243;22618;-92
2023/06/16 10:26:26;;;;;;;11.40;10.30;;;;;;;22.20;53.65;96470.92;112261;1243;22563;-92
2023/06/16 10:29:27;;;;;;;11.70;10.50;;;;;;;22.13;53.34;96467.73;108367;1247;4291580;-91
2023/06/16 10:36:10;;;;;;;10.30;9.20;;;;;;;22.18;53.68;96459.25;111213;1247;25415;-92
2023/06/16 10:39:40;;;;;;;;;;;;;;;;;;;;;
2023/06/16 10:42:55;;;;;;;;;;;;;;;;;;;;;
2023/06/16 10:45:56;;;;;;;12.20;10.90;;;;;;;22.32;54.49;96461.68;112267;1243;22501;-91
2023/06/16 10:52:07;;;;;;;12.40;11.20;;;;;;;22.69;54.20;96457.64;112135;1243;22535;-92
2023/06/16 10:55:12;;;;;;;;;;;;;;;;;;;;;
2023/06/16 10:59:07;;;;;;;;;;;;;;;;;;;;;
2023/06/16 11:05:52;;;;;;;11.70;10.50;;;;;;;22.72;54.42;96447.80;111304;1249;22579;-90
2023/06/16 11:08:55;;;;;;;12.30;11.10;;;;;;;22.71;53.85;96450.41;111287;1249;25241;-90
2023/06/16 11:15:24;;;;;;;12.50;10.60;;;;;;;22.14;52.74;96444.43;111477;1248;22662;-90
2023/06/16 11:18:44;;;;;;;10.70;9.70;;;;;;;22.01;53.33;96438.77;111502;1249;22518;-91
2023/06/16 11:22:12;;;;;;;;;;;;;;;;;;;;;
2023/06/16 11:25:18;;;;;;;11.70;10.60;;;;;;;22.43;54.01;96428.92;110610;1256;24041;-90
2023/06/16 11:27:50;;;;;;;11.00;9.90;;;;;;;22.64;54.18;96433.61;111435;1249;23171;-90
2023/06/16 11:30:30;;;;;;;12.00;10.80;;;;;;;22.76;53.57;96430.80;110313;1242;1776647;-91
2023/06/16 11:33:08;;;;;;;10.60;9.50;;;;;;;22.87;53.83;96422.98;112262;1242;23429;-91
2023/06/16 11:39:44;;;;;;;10.60;9.50;;;;;;;23.01;52.75;96416.09;112135;1243;22514;-91
2023/06/16 11:42:55;;;;;;;;;;;;;;;;;;;;;
2023/06/16 11:45:52;;;;;;;10.90;9.60;;;;;;;22.69;52.41;96410.38;111990;1243;25330;-92
2023/06/16 11:48:52;;;;;;;11.80;9.90;;;;;;;22.63;52.18;96405.24;112291;1242;22512;-91
2023/06/16 11:51:28;;;;;;;10.80;9.70;;;;;;;22.59;52.21;96404.58;112156;1243;85764;-91
2023/06/16 11:54:01;;;;;;;10.90;9.80;;;;;;;22.58;52.26;96400.61;112290;1235;22551;-90
2023/06/16 11:57:03;;;;;;;10.40;9.10;;;;;;;22.62;52.64;96401.77;112226;1243;25341;-91
2023/06/16 11:59:46;;;;;;;10.80;8.80;;;;;;;22.59;51.97;96403.19;110724;1243;2022414;-92
2023/06/16 12:02:29;;;;;;;10.60;9.50;;;;;;;22.51;52.01;96401.34;112088;1243;24351;-93
2023/06/16 12:05:00;;;;;;;10.30;9.10;;;;;;;22.47;52.53;96401.52;112285;1243;22530;-93
2023/06/16 12:07:46;;;;;;;10.50;9.30;;;;;;;22.42;52.54;96408.39;112013;1242;22527;-92
2023/06/16 12:10:27;;;;;;;12.20;9.90;;;;;;;22.37;52.69;96409.14;112249;1242;51956;-92
2023/06/16 12:13:02;;;;;;;10.40;9.10;;;;;;;22.37;52.82;96412.45;112304;1243;22517;-92
2023/06/16 12:15:34;;;;;;;12.10;8.70;;;;;;;22.38;52.77;96406.91;112296;1242;24229;-91
2023/06/16 12:18:13;;;;;;;11.20;9.70;;;;;;;22.36;52.47;96405.33;112304;1243;24378;-92
2023/06/16 12:21:00;;;;;;;10.60;9.50;;;;;;;22.35;52.53;96405.23;110314;1242;2602689;-91
2023/06/16 12:23:40;;;;;;;11.50;10.30;;;;;;;22.38;52.51;96401.06;112325;1243;22558;-92
2023/06/16 12:26:43;;;;;;;10.00;9.00;;;;;;;22.42;52.49;96397.19;112317;1242;22509;-91
2023/06/16 12:29:34;;;;;;;9.90;8.70;;;;;;;22.41;51.93;96398.89;112344;1239;22530;-92
2023/06/16 12:32:40;;;;;;;;;;;;;;;;;;;;;
2023/06/16 12:35:31;;;;;;;9.90;8.80;;;;;;;22.30;52.43;96391.80;112356;1240;23330;-94
2023/06/16 12:38:11;;;;;;;10.90;9.10;;;;;;;22.22;51.98;96393.83;112276;1242;22538;-91
2023/06/16 12:40:53;;;;;;;13.10;9.30;;;;;;;22.10;52.04;96402.02;112214;1243;57532;-93
2023/06/16 12:43:35;;;;;;;9.80;8.70;;;;;;;22.04;52.06;96402.71;112273;1243;23826;-91
2023/06/16 12:46:06;;;;;;;9.10;8.30;;;;;;;21.98;52.10;96401.37;112309;1241;22513;-92
2023/06/16 12:48:44;;;;;;;8.70;7.80;;;;;;;21.94;52.22;96399.83;112055;1242;24220;-92
2023/06/16 12:51:25;;;;;;;10.50;9.10;;;;;;;21.85;52.14;96397.59;110886;1243;1806536;-92
2023/06/16 12:54:04;;;;;;;9.80;8.70;;;;;;;21.75;52.06;96399.77;112095;1243;22548;-92
2023/06/16 12:56:54;;;;;;;10.50;9.50;;;;;;;21.60;52.24;96395.85;112274;1243;23255;-93
2023/06/16 13:02:53;;;;;;;9.50;8.60;;;;;;;21.38;53.09;96391.68;111712;1243;22602;-91
2023/06/16 13:05:52;;;;;;;11.50;9.40;;;;;;;21.44;53.23;96388.96;112034;1232;22518;-91
2023/06/16 13:09:20;;;;;;;;;;;;;;;;;;;;;
2023/06/16 13:12:11;;;;;;;10.10;9.10;;;;;;;21.35;52.77;96390.84;107389;1247;5370893;-93
2023/06/16 13:15:18;;;;;;;10.90;9.40;;;;;;;21.26;53.00;96387.42;111664;1244;22528;-95
2023/06/16 13:18:11;;;;;;;9.30;8.30;;;;;;;21.23;53.20;96392.63;111649;1246;22595;-92
2023/06/16 13:20:53;;;;;;;11.10;9.50;;;;;;;21.27;54.00;96389.20;107604;1247;5155157;-91
2023/06/16 13:23:44;;;;;;;;;;;;;;;;;;;;;
2023/06/16 13:26:48;;;;;;;10.80;9.20;;;;;;;21.43;54.20;96383.70;112262;1242;22512;-91
2023/06/16 13:29:23;;;;;;;10.10;9.10;;;;;;;21.43;54.26;96385.71;112315;1242;22534;-91
2023/06/16 13:31:54;;;;;;;12.10;8.90;;;;;;;21.40;53.53;96391.02;112036;1243;105980;-91
2023/06/16 13:34:25;;;;;;;10.20;9.10;;;;;;;21.32;53.78;96386.09;112121;1239;22611;-92
2023/06/16 13:37:02;;;;;;;9.80;8.80;;;;;;;21.31;54.23;96386.23;112300;1242;25248;-93
2023/06/16 13:39:38;;;;;;;10.50;9.40;;;;;;;21.28;54.17;96386.56;112327;1238;22505;-92
2023/06/16 13:42:12;;;;;;;10.20;9.10;;;;;;;21.25;53.95;96386.77;112226;1243;70159;-90
2023/06/16 13:44:55;;;;;;;11.80;10.60;;;;;;;21.18;53.87;96386.30;112326;1240;22506;-92
2023/06/16 13:47:29;;;;;;;10.60;9.00;;;;;;;21.16;54.11;96383.95;112322;1243;22492;-92
2023/06/16 13:50:17;;;;;;;11.20;10.10;;;;;;;21.16;54.30;96379.72;112326;1242;22523;-91
2023/06/16 13:52:50;;;;;;;12.80;9.00;;;;;;;21.14;54.40;96385.98;112367;1242;22498;-92
2023/06/16 13:55:26;;;;;;;12.20;9.80;;;;;;;21.11;54.30;96382.51;112346;1242;22524;-92
2023/06/16 13:58:12;;;;;;;11.00;9.90;;;;;;;21.04;54.16;96383.98;112315;1243;22515;-92
2023/06/16 14:00:49;;;;;;;12.70;11.40;;;;;;;20.96;54.20;96381.63;112290;1242;33533;-91
2023/06/16 14:03:30;;;;;;;;;;;;;;;;;;;;;
2023/06/16 14:06:18;;;;;;;10.20;9.20;;;;;;;20.80;54.24;96376.55;112316;1242;22477;-93
2023/06/16 14:09:41;;;;;;;;;;;;;;;;;;;;;
2023/06/16 14:12:38;;;;;;;12.20;9.80;;;;;;;20.59;54.36;96374.08;108105;1243;5341175;-91
2023/06/16 14:15:37;;;;;;;11.70;10.60;;;;;;;20.54;54.67;96368.64;112305;1240;25436;-91
2023/06/16 14:18:11;;;;;;;11.00;9.90;;;;;;;20.53;55.03;96367.30;112309;1243;25238;-90
2023/06/16 14:20:47;;;;;;;11.20;10.00;;;;;;;20.52;55.05;96368.20;110270;1243;2631714;-91
2023/06/16 14:27:00;;;;;;;;;;;;;;;;;;;;;
2023/06/16 14:30:10;;;;;;;;;;;;;;;;;;;;;
2023/06/16 14:36:53;;;;;;;;;;;;;;;;;;;;;
2023/06/16 14:39:36;;;;;;;12.70;11.30;;;;;;;20.45;55.68;96366.37;112305;1239;25476;-91
2023/06/16 14:42:16;;;;;;;11.50;10.30;;;;;;;20.43;55.74;96364.55;112206;1240;105203;-91
2023/06/16 14:44:49;;;;;;;11.80;10.60;;;;;;;20.43;55.83;96359.86;112296;1242;22493;-90
2023/06/16 14:47:35;;;;;;;12.00;10.70;;;;;;;20.41;55.72;96360.80;112301;1238;22524;-90
2023/06/16 14:50:24;;;;;;;13.50;10.70;;;;;;;20.42;55.99;96364.77;112330;1242;24528;-91
2023/06/16 14:53:18;;;;;;;12.60;11.10;;;;;;;20.44;55.93;96359.64;108081;1241;5403514;-90
2023/06/16 14:55:55;;;;;;;12.50;11.10;;;;;;;20.41;55.97;96356.84;112324;1240;22510;-92
2023/06/16 14:58:36;;;;;;;11.80;10.60;;;;;;;20.35;55.79;96354.45;112321;1239;22505;-90